Time;durP1;ratioP1;P1;durP2;ratioP2;P2;SDS_P1;SDS_P2;PMS_P1;PMS_P2;Temp;Humidity;BMP_temperature;BMP_pressure;BME280_temperature;BME280_humidity;BME280_pressure;Samples;Min_cycle;Max_cycle;Signal;HPM_P1;HPM_P2
2021/10/04 00:01:38;;;;;;;;;11.00;9.00;;;;;17.86;51.67;98434.38;4809784;28;102724;-85
2021/10/04 00:04:05;;;;;;;;;9.00;7.67;;;;;17.87;50.98;98444.25;4790553;28;102592;-85
2021/10/04 00:06:32;;;;;;;;;9.00;9.00;;;;;17.85;50.94;98441.75;4787274;28;102881;-85
2021/10/04 00:08:59;;;;;;;;;10.67;7.67;;;;;17.85;50.81;98436.28;4825066;28;104289;-84
2021/10/04 00:11:26;;;;;;;;;7.00;7.00;;;;;17.84;51.22;98435.44;4807735;28;104976;-85
2021/10/04 00:13:54;;;;;;;;;10.67;9.00;;;;;17.81;51.07;98418.72;4832730;28;103291;-85
2021/10/04 00:16:21;;;;;;;;;7.00;7.00;;;;;17.82;50.99;98440.38;4835128;28;103305;-85
2021/10/04 00:18:48;;;;;;;;;8.00;8.00;;;;;17.82;50.66;98440.38;4835898;28;104159;-85
2021/10/04 00:21:15;;;;;;;;;11.00;9.00;;;;;17.82;50.59;98429.44;4827829;28;104774;-85
2021/10/04 00:23:42;;;;;;;;;8.33;8.00;;;;;17.79;51.17;98429.91;4839808;28;102746;-85
2021/10/04 00:26:10;;;;;;;;;8.00;8.00;;;;;17.77;51.05;98437.56;4836998;28;102603;-85
2021/10/04 00:28:37;;;;;;;;;7.67;7.00;;;;;17.81;50.80;98432.41;4837293;28;104404;-85
2021/10/04 00:31:04;;;;;;;;;7.33;7.33;;;;;17.81;50.35;98437.88;4842093;28;103392;-85
2021/10/04 00:33:32;;;;;;;;;7.67;7.00;;;;;17.81;50.59;98433.22;4842699;28;102316;-84
2021/10/04 00:35:59;;;;;;;;;7.00;7.00;;;;;17.80;50.64;98425.28;4837318;28;102656;-84
2021/10/04 00:38:26;;;;;;;;;6.00;6.00;;;;;17.77;50.60;98421.16;4835606;28;104039;-85
2021/10/04 00:40:53;;;;;;;;;8.33;8.33;;;;;17.75;50.68;98436.97;4836244;28;102399;-85
2021/10/04 00:43:21;;;;;;;;;8.67;8.33;;;;;17.76;50.97;98433.16;4833285;28;102370;-85
2021/10/04 00:45:48;;;;;;;;;9.00;9.00;;;;;17.76;50.02;98427.69;4824492;28;104815;-85
2021/10/04 00:48:16;;;;;;;;;8.00;7.00;;;;;17.77;50.82;98428.50;4813835;28;104291;-85
2021/10/04 00:50:43;;;;;;;;;9.00;8.67;;;;;17.75;50.71;98423.28;4835105;28;102888;-84
2021/10/04 00:53:10;;;;;;;;;8.00;7.00;;;;;17.73;50.58;98420.00;4828353;28;102388;-85
2021/10/04 00:55:38;;;;;;;;;9.67;9.33;;;;;17.74;50.88;98424.34;4837241;28;103102;-85
2021/10/04 00:58:05;;;;;;;;;8.00;6.67;;;;;17.71;50.23;98419.41;4820899;28;103269;-84
2021/10/04 01:00:32;;;;;;;;;8.00;7.00;;;;;17.73;50.99;98417.25;4832551;28;103613;-85
2021/10/04 01:02:59;;;;;;;;;7.33;7.33;;;;;17.72;50.16;98421.06;4785089;28;103543;-85
2021/10/04 01:05:31;;;;;;;;;9.00;8.67;;;;;17.72;50.83;98423.81;4828626;28;102720;-84
2021/10/04 01:07:58;;;;;;;;;7.00;6.00;;;;;17.73;50.04;98424.63;4833752;28;103992;-85
2021/10/04 01:10:26;;;;;;;;;6.67;6.67;;;;;17.72;50.51;98422.97;4767942;28;104482;-85
2021/10/04 01:12:54;;;;;;;;;8.67;7.67;;;;;17.72;50.15;98422.97;4832807;28;102548;-84
2021/10/04 01:15:21;;;;;;;;;8.33;7.00;;;;;17.70;50.47;98423.22;4841286;28;102189;-84
2021/10/04 01:17:48;;;;;;;;;9.00;8.00;;;;;17.71;50.43;98424.88;4836756;28;104400;-85
2021/10/04 01:20:20;;;;;;;;;7.33;7.00;;;;;17.70;50.31;98419.66;4828001;28;102861;-85
2021/10/04 01:22:48;;;;;;;;;8.00;8.00;;;;;17.67;50.12;98410.06;4844806;28;102675;-84
2021/10/04 01:25:17;;;;;;;;;8.33;7.00;;;;;17.68;49.99;98419.91;4831066;28;102604;-85
2021/10/04 01:27:46;;;;;;;;;9.00;8.00;;;;;17.66;50.07;98422.06;4829100;28;104322;-85
2021/10/04 01:30:14;;;;;;;;;8.33;7.00;;;;;17.67;50.15;98423.72;4839148;28;103636;-85
2021/10/04 01:32:42;;;;;;;;;8.33;8.33;;;;;17.66;50.56;98424.78;4839122;28;103368;-85
2021/10/04 01:35:10;;;;;;;;;8.00;7.00;;;;;17.66;49.64;98424.78;4824442;28;102761;-85
2021/10/04 01:37:37;;;;;;;;;7.00;7.00;;;;;17.65;49.88;98425.06;4821095;28;104196;-85
2021/10/04 01:40:06;;;;;;;;;8.00;8.00;;;;;17.66;49.83;98429.44;4834784;28;102726;-85
2021/10/04 01:42:33;;;;;;;;;8.00;7.00;;;;;17.64;49.90;98432.44;4840167;28;105750;-85
2021/10/04 01:45:00;;;;;;;;;9.33;9.00;;;;;17.63;50.33;98425.31;4842099;28;104649;-85
2021/10/04 01:47:27;;;;;;;;;8.00;7.67;;;;;17.66;50.44;98429.44;4815411;28;104055;-85
2021/10/04 01:49:54;;;;;;;;;6.33;6.33;;;;;17.64;49.98;98426.97;4835022;28;102526;-85
2021/10/04 01:52:21;;;;;;;;;7.33;6.67;;;;;17.62;49.73;98426.38;4840371;28;102258;-85
2021/10/04 01:54:52;;;;;;;;;7.00;7.00;;;;;17.61;50.09;98427.44;4838911;28;102367;-85
2021/10/04 01:57:19;;;;;;;;;10.00;9.00;;;;;17.63;49.62;98436.25;4840286;28;104189;-85
2021/10/04 01:59:46;;;;;;;;;6.67;6.00;;;;;17.61;50.34;98432.09;4833692;28;102790;-85
2021/10/04 02:02:13;;;;;;;;;7.33;7.33;;;;;17.61;50.34;98434.81;4836219;28;102423;-85
2021/10/04 02:04:41;;;;;;;;;7.00;7.00;;;;;17.60;49.52;98434.03;4828204;28;102459;-84
2021/10/04 02:07:08;;;;;;;;;8.00;8.00;;;;;17.60;49.97;98435.91;4833954;28;103985;-85
2021/10/04 02:09:35;;;;;;;;;8.00;7.25;;;;;17.59;49.75;98437.81;4833760;28;103486;-85
2021/10/04 02:12:02;;;;;;;;;7.00;7.00;;;;;17.59;49.79;98432.34;4846249;28;103049;-84
2021/10/04 02:14:29;;;;;;;;;8.00;8.00;;;;;17.58;49.61;98441.63;4820574;28;105115;-84
2021/10/04 02:16:56;;;;;;;;;7.00;7.00;;;;;17.59;50.26;98440.56;4838055;28;104185;-85
2021/10/04 02:19:23;;;;;;;;;7.67;7.67;;;;;17.56;49.94;98432.81;4827032;28;102417;-85
2021/10/04 02:21:50;;;;;;;;;8.00;7.00;;;;;17.58;49.64;98440.75;4837602;28;102970;-85
2021/10/04 02:24:17;;;;;;;;;8.67;7.33;;;;;17.59;49.30;98439.72;4828736;28;102795;-85
2021/10/04 02:26:44;;;;;;;;;8.67;7.67;;;;;17.57;49.20;98448.13;4837479;28;103808;-84
2021/10/04 02:29:10;;;;;;;;;9.00;7.33;;;;;17.56;49.21;98451.94;4819348;28;102615;-85
2021/10/04 02:31:37;;;;;;;;;9.33;9.00;;;;;17.54;49.69;98447.81;4846032;28;102465;-85
2021/10/04 02:34:05;;;;;;;;;7.33;7.00;;;;;17.53;49.18;98436.03;4831473;28;102577;-84
2021/10/04 02:36:32;;;;;;;;;8.33;7.33;;;;;17.54;49.85;98445.91;4832616;28;104080;-84
2021/10/04 02:38:59;;;;;;;;;9.00;8.67;;;;;17.52;49.04;98442.59;4840537;28;104804;-85
2021/10/04 02:41:26;;;;;;;;;9.33;7.33;;;;;17.51;49.94;98443.69;4834143;28;104402;-85
2021/10/04 02:43:53;;;;;;;;;9.00;7.00;;;;;17.51;49.34;98451.06;4830416;28;106646;-85
2021/10/04 02:46:19;;;;;;;;;7.33;7.33;;;;;17.51;49.34;98456.53;4840193;28;104354;-85
2021/10/04 02:48:47;;;;;;;;;9.00;8.67;;;;;17.50;49.19;98450.22;4836588;28;102451;-84
2021/10/04 02:51:14;;;;;;;;;7.00;7.00;;;;;17.49;49.59;98450.47;4842313;28;102191;-84
2021/10/04 02:53:41;;;;;;;;;8.00;8.00;;;;;17.49;49.02;98459.50;4821620;28;112854;-85
2021/10/04 02:56:08;;;;;;;;;7.33;7.33;;;;;17.48;49.83;98446.91;4823176;28;104319;-85
2021/10/04 02:58:35;;;;;;;;;7.00;6.00;;;;;17.50;49.89;98452.13;4841062;28;103196;-85
2021/10/04 03:01:02;;;;;;;;;7.67;7.00;;;;;17.48;48.66;98438.69;4839130;28;102377;-85
2021/10/04 03:03:29;;;;;;;;;10.75;8.75;;;;;17.48;49.58;98437.88;4816738;28;102596;-85
2021/10/04 03:05:56;;;;;;;;;9.33;8.33;;;;;17.46;49.50;98457.28;4830007;28;104293;-85
2021/10/04 03:08:23;;;;;;;;;9.00;8.00;;;;;17.46;48.94;98451.81;4833949;28;102794;-84
2021/10/04 03:10:50;;;;;;;;;8.25;8.00;;;;;17.44;49.50;98451.22;4843469;28;102558;-84
2021/10/04 03:13:17;;;;;;;;;8.50;8.00;;;;;17.45;49.16;98450.13;4844929;28;102464;-84
2021/10/04 03:15:44;;;;;;;;;8.67;8.00;;;;;17.43;49.05;98446.81;4830738;28;103996;-85
2021/10/04 03:18:11;;;;;;;;;10.00;8.00;;;;;17.43;48.62;98446.81;4843593;28;110669;-85
2021/10/04 03:20:39;;;;;;;;;6.50;6.50;;;;;17.42;48.42;98456.13;4843384;28;102493;-85
2021/10/04 03:23:06;;;;;;;;;7.67;7.00;;;;;17.40;49.07;98456.34;4838416;28;102641;-85
2021/10/04 03:25:33;;;;;;;;;8.33;7.33;;;;;17.40;49.65;98452.78;4836606;28;104097;-85
2021/10/04 03:28:00;;;;;;;;;8.25;7.50;;;;;17.40;48.96;98447.31;4832425;28;102658;-85
2021/10/04 03:30:27;;;;;;;;;9.25;8.25;;;;;17.38;49.43;98466.69;4814649;28;104199;-85
2021/10/04 03:32:54;;;;;;;;;7.25;7.25;;;;;17.39;48.93;98445.66;4850282;28;102426;-85
2021/10/04 03:35:21;;;;;;;;;8.00;8.00;;;;;17.37;48.94;98442.34;4835871;28;103995;-85
2021/10/04 03:37:49;;;;;;;;;6.00;6.00;;;;;17.38;49.40;98444.03;4832827;28;102542;-85
2021/10/04 03:40:16;;;;;;;;;8.00;8.00;;;;;17.37;48.92;98448.66;4842260;28;111004;-85
2021/10/04 03:42:43;;;;;;;;;9.00;8.00;;;;;17.38;48.93;98452.22;4837256;28;102683;-84
2021/10/04 03:45:10;;;;;;;;;7.67;7.00;;;;;17.37;48.26;98461.50;4839832;28;104062;-84
2021/10/04 03:47:37;;;;;;;;;9.67;8.00;;;;;17.35;48.70;98441.75;4827552;28;102502;-85
2021/10/04 03:50:06;;;;;;;;;7.75;7.25;;;;;17.35;48.56;98458.16;4835980;28;103321;-85
2021/10/04 03:52:33;;;;;;;;;9.25;8.00;;;;;17.35;49.02;98458.16;4840236;28;102317;-85
2021/10/04 03:55:00;;;;;;;;;7.33;7.33;;;;;17.34;47.70;98456.50;4838416;28;104251;-85
2021/10/04 03:57:28;;;;;;;;;6.33;6.33;;;;;17.33;48.87;98458.44;4840539;28;102587;-84
2021/10/04 03:59:54;;;;;;;;;8.00;8.00;;;;;17.31;47.94;98460.56;4838348;28;102876;-84
2021/10/04 04:02:21;;;;;;;;;10.00;8.00;;;;;17.30;47.90;98466.28;4832222;28;102634;-85
2021/10/04 04:04:49;;;;;;;;;9.33;8.33;;;;;17.28;48.67;98455.59;4838199;28;104334;-85
2021/10/04 04:07:16;;;;;;;;;7.67;6.67;;;;;17.29;48.24;98442.78;4833915;28;102385;-84
2021/10/04 04:09:43;;;;;;;;;6.33;6.33;;;;;17.28;48.65;98457.50;4838934;28;102316;-85
2021/10/04 04:12:10;;;;;;;;;8.25;8.25;;;;;17.26;48.19;98455.00;4851046;28;102399;-85
2021/10/04 04:14:37;;;;;;;;;9.33;8.33;;;;;17.27;47.91;98462.16;4860178;28;106154;-84
2021/10/04 04:17:04;;;;;;;;;10.75;9.00;;;;;17.27;48.65;98458.59;4853279;28;102199;-84
2021/10/04 04:19:31;;;;;;;;;9.00;9.00;;;;;17.26;48.13;98459.66;4848809;28;102391;-85
2021/10/04 04:21:58;;;;;;;;;9.00;8.75;;;;;17.23;48.40;98463.72;4857997;28;102016;-85
2021/10/04 04:24:25;;;;;;;;;7.67;7.67;;;;;17.23;48.52;98460.16;4852376;28;103387;-85
2021/10/04 04:26:53;;;;;;;;;9.25;8.75;;;;;17.21;47.88;98449.47;4844265;28;102432;-85
2021/10/04 04:29:22;;;;;;;;;7.67;7.67;;;;;17.24;48.65;98453.63;4858792;28;102063;-85
2021/10/04 04:31:50;;;;;;;;;9.00;7.50;;;;;17.23;47.87;98451.97;4849772;28;102676;-84
2021/10/04 04:34:17;;;;;;;;;7.67;7.67;;;;;17.21;48.14;98454.09;4854225;28;105116;-85
2021/10/04 04:36:44;;;;;;;;;10.00;9.00;;;;;17.20;48.35;98444.25;4863388;28;102671;-85
2021/10/04 04:39:11;;;;;;;;;10.50;10.00;;;;;17.21;47.88;98457.66;4858578;28;103216;-85
2021/10/04 04:41:40;;;;;;;;;10.75;9.00;;;;;17.22;47.76;98461.22;4860685;28;102272;-85
2021/10/04 04:44:07;;;;;;;;;9.00;8.25;;;;;17.19;47.91;98456.25;4862849;28;107985;-85
2021/10/04 04:46:34;;;;;;;;;8.50;8.25;;;;;17.16;48.06;98446.63;4847892;28;102149;-85
2021/10/04 04:49:01;;;;;;;;;9.00;8.00;;;;;17.18;48.25;98460.06;4857600;28;102217;-84
2021/10/04 04:51:28;;;;;;;;;7.67;7.67;;;;;17.18;47.88;98460.06;4853141;28;103967;-85
2021/10/04 04:53:55;;;;;;;;;10.33;9.00;;;;;17.18;47.92;98460.06;4835981;28;103561;-85
2021/10/04 04:56:22;;;;;;;;;7.00;6.00;;;;;17.16;47.56;98464.94;4860323;28;101933;-85
2021/10/04 04:58:49;;;;;;;;;8.00;7.00;;;;;17.15;47.57;98461.41;4843558;28;101841;-85
2021/10/04 05:01:16;;;;;;;;;10.33;9.67;;;;;17.14;47.78;98464.38;4858909;28;102223;-85
2021/10/04 05:03:43;;;;;;;;;11.00;10.00;;;;;17.12;47.65;98461.03;4856338;28;103953;-85
2021/10/04 05:06:11;;;;;;;;;9.50;9.00;;;;;17.13;48.43;98468.16;4860617;28;102309;-85
2021/10/04 05:08:38;;;;;;;;;7.50;7.50;;;;;17.11;47.07;98475.78;4862083;28;102013;-85
2021/10/04 05:11:05;;;;;;;;;10.00;9.25;;;;;17.11;48.29;98473.06;4862672;28;102370;-85
2021/10/04 05:13:32;;;;;;;;;10.00;9.00;;;;;17.12;47.81;98477.44;4855279;28;104681;-84
2021/10/04 05:15:59;;;;;;;;;8.00;8.00;;;;;17.10;47.48;98474.13;4857473;28;101832;-85
2021/10/04 05:18:26;;;;;;;;;9.00;8.33;;;;;17.09;47.77;98477.94;4858096;28;102078;-85
2021/10/04 05:20:53;;;;;;;;;12.50;10.25;;;;;17.09;47.89;98483.41;4837690;28;102308;-85
2021/10/04 05:23:20;;;;;;;;;8.00;8.00;;;;;17.08;47.35;98484.47;4855672;28;103964;-85
2021/10/04 05:25:47;;;;;;;;;11.75;9.75;;;;;17.08;47.42;98481.72;4840102;28;103112;-85
2021/10/04 05:28:14;;;;;;;;;8.00;8.00;;;;;17.08;47.97;98487.19;4858757;28;103110;-85
2021/10/04 05:30:41;;;;;;;;;10.25;10.25;;;;;17.09;47.52;98488.84;4869919;28;102276;-85
2021/10/04 05:33:08;;;;;;;;;9.25;8.50;;;;;17.08;47.10;98492.66;4857113;28;108685;-85
2021/10/04 05:35:35;;;;;;;;;9.50;8.25;;;;;17.08;46.86;98495.38;4853280;28;103420;-85
2021/10/04 05:38:02;;;;;;;;;9.50;9.00;;;;;17.05;46.93;98494.00;4865851;28;103005;-85
2021/10/04 05:40:29;;;;;;;;;10.25;10.00;;;;;17.04;47.92;98495.06;4856534;28;102228;-85
2021/10/04 05:42:56;;;;;;;;;11.25;10.25;;;;;17.04;47.93;98500.53;4855049;28;103594;-85
2021/10/04 05:45:23;;;;;;;;;14.00;11.50;;;;;17.03;46.87;98508.94;4859773;28;102073;-85
2021/10/04 05:47:50;;;;;;;;;11.00;9.50;;;;;17.05;46.92;98515.00;4831223;28;102136;-85
2021/10/04 05:50:17;;;;;;;;;12.25;11.50;;;;;17.02;47.66;98510.06;4854812;28;103792;-85
2021/10/04 05:52:44;;;;;;;;;13.50;9.25;;;;;17.01;47.43;98511.13;4856640;28;103337;-85
2021/10/04 05:55:11;;;;;;;;;10.00;9.50;;;;;17.01;46.85;98508.38;4857567;28;102184;-85
2021/10/04 05:57:38;;;;;;;;;11.00;10.00;;;;;17.00;47.09;98506.72;4850189;28;102117;-85
2021/10/04 06:00:06;;;;;;;;;11.25;9.75;;;;;17.00;47.48;98517.66;4856618;28;102233;-85
2021/10/04 06:02:33;;;;;;;;;10.00;10.00;;;;;16.98;47.98;98514.31;4853218;28;103331;-85
2021/10/04 06:05:00;;;;;;;;;13.25;11.00;;;;;16.95;47.24;98516.47;4833932;28;102338;-84
2021/10/04 06:07:27;;;;;;;;;11.00;10.00;;;;;16.99;46.90;98515.97;4841366;28;101908;-85
2021/10/04 06:09:54;;;;;;;;;11.75;10.25;;;;;16.96;47.40;98500.91;4855080;28;104593;-85
2021/10/04 06:12:26;;;;;;;;;13.25;13.00;;;;;16.98;47.74;98522.50;4853881;28;103409;-85
2021/10/04 06:14:54;;;;;;;;;11.75;10.00;;;;;16.98;47.69;98519.78;4852945;28;101918;-85
2021/10/04 06:17:22;;;;;;;;;12.00;11.00;;;;;16.95;47.03;98516.47;4851400;28;102260;-85
2021/10/04 06:19:48;;;;;;;;;11.75;10.25;;;;;16.95;47.01;98518.38;4844501;28;102267;-85
2021/10/04 06:22:15;;;;;;;;;10.75;10.50;;;;;16.94;46.80;98522.19;4855437;28;103639;-85
2021/10/04 06:24:42;;;;;;;;;12.75;11.00;;;;;16.94;46.71;98527.63;4856192;28;101669;-85
2021/10/04 06:27:10;;;;;;;;;12.50;11.00;;;;;16.93;47.67;98524.06;4854176;28;102109;-84
2021/10/04 06:29:37;;;;;;;;;12.25;11.50;;;;;16.94;46.98;98524.91;4856240;28;102315;-85
2021/10/04 06:32:05;;;;;;;;;13.75;13.00;;;;;16.92;47.84;98530.63;4854251;28;103906;-85
2021/10/04 06:34:32;;;;;;;;;14.00;10.75;;;;;16.92;47.71;98527.06;4868424;28;102127;-85
2021/10/04 06:36:59;;;;;;;;;12.50;10.50;;;;;16.91;47.40;98541.78;4845422;28;102917;-84
2021/10/04 06:39:26;;;;;;;;;11.25;10.25;;;;;16.90;47.90;98540.97;4858619;28;102197;-85
2021/10/04 06:41:53;;;;;;;;;12.00;11.50;;;;;16.91;47.29;98545.34;4859739;28;103437;-85
2021/10/04 06:44:20;;;;;;;;;12.50;11.75;;;;;16.88;48.00;98548.59;4841420;28;102923;-85
2021/10/04 06:46:59;;;;;;;;;12.50;12.50;;;;;16.91;47.18;98537.16;4856077;28;102175;-85
2021/10/04 06:49:31;;;;;;;;;15.00;12.75;;;;;16.90;48.34;98540.13;4849909;28;103169;-85
2021/10/04 06:51:58;;;;;;;;;14.00;13.00;;;;;16.90;47.59;98551.88;4852384;28;103407;-85
2021/10/04 06:54:25;;;;;;;;;13.00;11.00;;;;;16.91;47.17;98561.75;4866812;28;105299;-85
2021/10/04 06:56:52;;;;;;;;;13.00;11.75;;;;;16.90;48.09;98567.44;4862244;28;102308;-85
2021/10/04 06:59:19;;;;;;;;;12.75;12.00;;;;;16.90;47.95;98571.00;4855804;28;102226;-85
2021/10/04 07:01:46;;;;;;;;;13.25;11.00;;;;;16.89;47.70;98563.03;4864126;28;103581;-85
2021/10/04 07:04:13;;;;;;;;;13.00;12.00;;;;;16.88;48.60;98561.41;4865369;28;101852;-85
2021/10/04 07:06:40;;;;;;;;;12.25;11.25;;;;;16.90;48.18;98573.72;4852552;28;110993;-85
2021/10/04 07:09:07;;;;;;;;;16.50;12.75;;;;;16.86;48.73;98567.09;4866211;28;102199;-85
2021/10/04 07:11:34;;;;;;;;;13.50;13.25;;;;;16.89;47.97;98563.88;4840560;28;103463;-85
2021/10/04 07:14:01;;;;;;;;;14.50;13.75;;;;;16.88;48.73;98570.44;4838178;28;103636;-85
2021/10/04 07:16:28;;;;;;;;;13.00;13.00;;;;;16.87;48.35;98568.75;4839356;28;102038;-84
2021/10/04 07:18:55;;;;;;;;;9.00;8.00;;;;;16.87;48.97;98568.75;4856122;28;103277;-84
2021/10/04 07:21:22;;;;;;;;;13.50;13.50;;;;;16.90;48.38;98573.72;4855246;28;103410;-85
2021/10/04 07:23:49;;;;;;;;;14.00;13.00;;;;;16.90;48.07;98584.66;4854234;28;102102;-88
2021/10/04 07:26:16;;;;;;;;;13.00;12.00;;;;;16.90;49.25;98576.47;4853888;28;102843;-86
2021/10/04 07:28:43;;;;;;;;;17.50;13.25;;;;;16.91;49.21;98575.41;4859529;28;103158;-88
2021/10/04 07:31:11;;;;;;;;;13.00;12.00;;;;;16.91;49.00;98572.66;4855398;28;108122;-88
2021/10/04 07:33:38;;;;;;;;;14.50;13.75;;;;;16.93;49.40;98577.91;4858853;28;102077;-88
2021/10/04 07:36:06;;;;;;;;;15.25;12.75;;;;;16.92;49.67;98585.25;4855982;28;102026;-88
2021/10/04 07:38:35;;;;;;;;;15.00;12.75;;;;;16.93;48.98;98581.44;4863929;28;102000;-89
2021/10/04 07:41:03;;;;;;;;;12.75;12.75;;;;;16.93;48.59;98584.16;4855845;28;103497;-88
2021/10/04 07:43:30;;;;;;;;;16.50;14.00;;;;;16.93;49.73;98584.16;4856237;28;102898;-89
2021/10/04 07:45:57;;;;;;;;;15.00;12.00;;;;;16.93;49.33;98578.69;4861619;28;101991;-88
2021/10/04 07:48:25;;;;;;;;;12.00;11.00;;;;;16.93;49.70;98581.44;4855819;28;102098;-88
2021/10/04 07:50:52;;;;;;;;;11.75;11.25;;;;;16.93;49.96;98583.38;4852315;28;103604;-88
2021/10/04 07:53:19;;;;;;;;;13.25;12.00;;;;;16.93;50.48;98583.38;4859454;28;101854;-88
2021/10/04 07:55:46;;;;;;;;;15.00;14.00;;;;;16.93;49.41;98584.16;4853945;28;102230;-86
2021/10/04 07:58:13;;;;;;;;;13.50;11.00;;;;;16.95;50.29;98594.84;4862710;28;102093;-88
2021/10/04 08:00:40;;;;;;;;;12.50;12.00;;;;;16.94;50.60;98591.28;4852850;28;103426;-88
2021/10/04 08:03:07;;;;;;;;;12.00;11.75;;;;;16.97;50.43;98594.63;4852617;28;103159;-88
2021/10/04 08:05:34;;;;;;;;;12.50;11.75;;;;;16.98;50.77;98599.00;4851355;28;102158;-88
2021/10/04 08:08:01;;;;;;;;;16.25;14.00;;;;;16.97;50.49;98589.16;4856949;28;102644;-89
2021/10/04 08:10:30;;;;;;;;;11.75;11.75;;;;;17.00;50.30;98594.13;4855729;28;103993;-88
2021/10/04 08:12:59;;;;;;;;;12.50;11.50;;;;;17.01;50.33;98595.81;4858141;28;102471;-88
2021/10/04 08:15:26;;;;;;;;;13.75;12.50;;;;;17.02;50.73;98594.72;4861869;28;102724;-88
2021/10/04 08:17:53;;;;;;;;;11.75;11.00;;;;;17.02;50.71;98592.81;4873942;28;102250;-88
2021/10/04 08:20:22;;;;;;;;;10.75;10.75;;;;;17.02;50.56;98589.28;4880390;28;102392;-88
2021/10/04 08:22:49;;;;;;;;;8.75;8.25;;;;;17.04;51.42;98596.13;4875118;28;102123;-88
2021/10/04 08:25:16;;;;;;;;;12.25;11.00;;;;;17.04;50.86;98587.94;4852487;28;102307;-88
2021/10/04 08:27:43;;;;;;;;;13.00;10.00;;;;;17.05;51.81;98591.50;4878214;28;102307;-88
2021/10/04 08:30:10;;;;;;;;;9.00;9.00;;;;;17.05;51.01;98586.88;4869073;28;103495;-88
2021/10/04 08:32:37;;;;;;;;;9.25;9.00;;;;;17.05;50.91;98584.16;4870453;28;102547;-88
2021/10/04 08:35:05;;;;;;;;;9.75;9.00;;;;;17.07;51.71;98589.34;4875886;28;102325;-88
2021/10/04 08:37:32;;;;;;;;;11.00;10.00;;;;;17.08;51.02;98593.75;4865269;28;102216;-88
2021/10/04 08:40:08;;;;;;;;;9.00;9.00;;;;;17.10;52.04;98594.34;4853946;28;103536;-88
2021/10/04 08:42:35;;;;;;;;;9.25;8.25;;;;;17.10;51.47;98595.19;4874482;28;102099;-88
2021/10/04 08:45:03;;;;;;;;;11.00;9.00;;;;;17.13;50.92;98593.84;4867969;28;104442;-88
2021/10/04 08:47:36;;;;;;;;;9.00;9.00;;;;;17.13;51.93;98597.41;4838979;28;102354;-88
2021/10/04 08:50:04;;;;;;;;;11.75;10.25;;;;;17.14;51.19;98592.78;4860251;28;103675;-89
2021/10/04 08:52:31;;;;;;;;;9.50;8.50;;;;;17.15;50.90;98591.72;4856101;28;102618;-88
2021/10/04 08:54:58;;;;;;;;;10.75;9.00;;;;;17.15;52.07;98595.28;4842960;28;102207;-88
2021/10/04 08:57:26;;;;;;;;;8.00;8.00;;;;;17.16;52.19;98582.41;4871294;28;103129;-88
2021/10/04 08:59:53;;;;;;;;;9.75;9.75;;;;;17.19;51.47;98587.41;4870361;28;103748;-88
2021/10/04 09:02:28;;;;;;;;;9.25;8.25;;;;;17.19;51.17;98592.88;4873165;28;102583;-88
2021/10/04 09:05:20;;;;;;;;;9.50;9.00;;;;;17.20;51.71;98583.63;4876556;28;102077;-88
2021/10/04 09:07:52;;;;;;;;;10.75;9.50;;;;;17.22;52.04;98595.13;4865762;28;101916;-87
2021/10/04 09:10:23;;;;;;;;;10.00;9.67;;;;;17.23;52.27;98585.84;4867103;28;103393;-87
2021/10/04 09:13:01;;;;;;;;;11.00;9.25;;;;;17.23;51.66;98577.66;4877445;28;102142;-88
2021/10/04 09:15:38;;;;;;;;;8.50;7.00;;;;;17.24;52.08;98579.31;4864703;28;101829;-88
2021/10/04 09:18:31;;;;;;;;;11.25;10.25;;;;;17.26;51.50;98571.69;4850645;28;102098;-88
2021/10/04 09:21:10;;;;;;;;;11.00;10.33;;;;;17.27;52.29;98567.91;4854969;28;107023;-88
2021/10/04 09:23:52;;;;;;;;;9.25;8.25;;;;;17.27;51.64;98573.34;4850038;28;103702;-88
2021/10/04 09:26:29;;;;;;;;;8.25;7.25;;;;;17.30;51.97;98572.84;4829350;28;102579;-88
2021/10/04 09:29:08;;;;;;;;;10.25;9.50;;;;;17.31;51.91;98575.34;4833062;28;103633;-88
2021/10/04 09:31:41;;;;;;;;;10.25;8.50;;;;;17.31;51.93;98574.53;4858390;28;103002;-88
2021/10/04 09:34:26;;;;;;;;;9.50;9.25;;;;;17.32;52.26;98570.72;4836372;28;101851;-88
2021/10/04 09:36:56;;;;;;;;;11.25;9.25;;;;;17.33;52.05;98573.22;4845977;28;101803;-88
2021/10/04 09:39:36;;;;;;;;;10.00;10.00;;;;;17.34;51.74;98568.56;4863898;28;102104;-88
2021/10/04 09:42:09;;;;;;;;;9.25;8.50;;;;;17.34;51.19;98561.19;4854658;28;103015;-88
2021/10/04 09:45:01;;;;;;;;;9.50;9.00;;;;;17.35;51.78;98560.13;4837461;28;101843;-88
2021/10/04 09:47:34;;;;;;;;;11.00;9.00;;;;;17.37;51.85;98562.63;4852864;28;102201;-88
2021/10/04 09:50:08;;;;;;;;;9.50;9.00;;;;;17.37;51.22;98558.00;4859131;28;101783;-88
2021/10/04 09:52:53;;;;;;;;;10.00;9.50;;;;;17.38;51.26;98553.34;4833876;28;103657;-89
2021/10/04 09:55:33;;;;;;;;;8.33;8.33;;;;;17.39;51.60;98555.00;4836596;28;102528;-88
2021/10/04 09:58:15;;;;;;;;;7.67;7.67;;;;;17.41;52.07;98558.31;4857331;28;102694;-88
2021/10/04 10:00:58;;;;;;;;;9.00;8.50;;;;;17.40;51.71;98548.44;4832472;28;102197;-88
2021/10/04 10:03:35;;;;;;;;;10.25;10.00;;;;;17.42;51.20;98554.53;4850698;28;102484;-88
2021/10/04 10:06:02;;;;;;;;;10.00;9.50;;;;;17.42;52.02;98551.78;4847465;28;102412;-88
2021/10/04 10:08:29;;;;;;;;;9.00;9.00;;;;;17.44;51.47;98559.72;4855990;28;101720;-88
2021/10/04 10:10:57;;;;;;;;;11.25;8.50;;;;;17.46;51.47;98555.69;4849831;28;102267;-88
2021/10/04 10:13:26;;;;;;;;;9.67;7.67;;;;;17.46;52.29;98555.69;4840579;28;103642;-88
2021/10/04 10:16:06;;;;;;;;;7.67;7.67;;;;;17.47;51.97;98551.84;4865461;28;102115;-88
2021/10/04 10:18:40;;;;;;;;;10.75;9.00;;;;;17.49;52.17;98562.56;4868547;28;102141;-88
2021/10/04 10:21:19;;;;;;;;;9.00;9.00;;;;;17.49;51.73;98563.38;4870996;28;102221;-88
2021/10/04 10:23:54;;;;;;;;;7.50;7.50;;;;;17.49;51.48;98559.81;4850505;28;112622;-88
2021/10/04 10:26:30;;;;;;;;;9.75;7.25;;;;;17.51;51.26;98555.78;4863848;28;102189;-88
2021/10/04 10:29:13;;;;;;;;;11.00;9.25;;;;;17.52;51.83;98557.41;4866977;28;101796;-88
2021/10/04 10:31:56;;;;;;;;;11.00;10.67;;;;;17.53;52.03;98555.50;4869151;28;103153;-88
2021/10/04 10:34:32;;;;;;;;;9.67;8.67;;;;;17.55;51.78;98554.19;4865767;28;108411;-88
2021/10/04 10:37:13;;;;;;;;;9.25;7.75;;;;;17.56;52.09;98552.31;4864210;28;102077;-89
2021/10/04 10:40:01;;;;;;;;;8.00;8.00;;;;;17.57;52.47;98552.03;4846833;28;101829;-88
2021/10/04 10:42:44;;;;;;;;;9.25;7.75;;;;;17.58;52.32;98545.53;4871231;28;104671;-88
2021/10/04 10:45:13;;;;;;;;;9.00;8.00;;;;;17.60;52.13;98557.06;4866072;28;103365;-88
2021/10/04 10:47:40;;;;;;;;;8.00;8.00;;;;;17.60;52.32;98539.81;4871365;28;102292;-88
2021/10/04 10:50:08;;;;;;;;;9.67;8.33;;;;;17.61;51.88;98536.81;4856130;28;101859;-88
2021/10/04 10:52:47;;;;;;;;;7.67;6.00;;;;;17.63;52.25;98540.16;4849256;28;101976;-88
2021/10/04 10:55:21;;;;;;;;;9.33;7.33;;;;;17.64;52.30;98543.72;4871259;28;107977;-89
2021/10/04 10:58:00;;;;;;;;;10.00;7.33;;;;;17.65;52.18;98540.72;4866417;28;101989;-88
2021/10/04 11:00:44;;;;;;;;;11.00;9.00;;;;;17.67;51.74;98545.94;4853602;28;102353;-88
2021/10/04 11:03:23;;;;;;;;;10.00;9.00;;;;;17.67;52.03;98546.78;4874081;28;102814;-89
2021/10/04 11:06:02;;;;;;;;;8.00;8.00;;;;;17.70;52.20;98550.91;4868516;28;108101;-87
2021/10/04 11:08:30;;;;;;;;;9.00;7.33;;;;;17.71;52.01;98547.09;4845950;28;104069;-88
2021/10/04 11:10:57;;;;;;;;;10.00;9.67;;;;;17.73;52.96;98554.00;4867726;28;102286;-88
2021/10/04 11:13:33;;;;;;;;;9.00;8.33;;;;;17.73;52.92;98540.31;4868177;28;102310;-88
2021/10/04 11:16:23;;;;;;;;;8.00;7.00;;;;;17.76;52.06;98539.81;4856215;28;103456;-88
2021/10/04 11:18:51;;;;;;;;;8.00;8.00;;;;;17.78;52.32;98545.88;4852593;28;102453;-87
2021/10/04 11:21:22;;;;;;;;;7.00;6.00;;;;;17.79;52.45;98550.25;4864333;28;101837;-88
2021/10/04 11:23:55;;;;;;;;;8.00;8.00;;;;;17.81;52.06;98553.59;4832581;28;103859;-86
2021/10/04 11:26:24;;;;;;;;;9.00;7.33;;;;;17.83;52.32;98551.41;4838916;28;108770;-88
2021/10/04 11:28:58;;;;;;;;;7.00;7.00;;;;;17.83;52.29;98532.25;4855494;28;101892;-88